Terminal Aerodrome Forecast
Issued by NWS Tulsa, OK

Home | Current Version | Previous Version | Text Only | Print | Product List | Glossary On
Versions: 1 2 3 4 5 6 7 8 9 10 11 12 13
000
FTUS44 KTSA 202337
TAFFSM
TAF
KFSM 202337Z 2100/2124 17011KT P6SM SCT025 SCT035
     FM210100 13007KT P6SM BKN025 WS015/19035KT
     FM210500 17007KT P6SM BKN018 WS015/19040KT
     FM211600 19012G19KT P6SM BKN025 PROB30 2118/2124 -TSRA
      BKN018CB=

USA.gov is the U.S. government's official web portal to all federal, state and local government web resources and services.